Terminal Aerodrome Forecast
Issued by NWS Wilmington, OH

Current Version | Previous Version | Graphics & Text | Print | Product List | Glossary Off
Versions: 1 2 3 4 5 6 7 8 9 10 11 12 13 14 15 16 17 18 19 20 21

000
FTUS41 KILN 221734
TAFDAY
TAF
KDAY 221734Z 2218/2318 20008KT 1SM BR OVC002
     FM221900 20007KT 2SM BR OVC004
     FM222000 20005KT 5SM BR OVC004
     FM222300 21007KT P6SM OVC015
     FM230300 19005KT P6SM BKN025
     FM230800 20006KT 5SM BR VCSH OVC015
     FM231200 22005KT 2SM BR VCSH OVC007
     FM231600 22006KT 5SM BR OVC010=

USA.gov is the U.S. government's official web portal to all federal, state and local government web resources and services.